createdAt,value
2022-09-03T00:03:49.371Z,9.72924
2022-09-03T00:08:51.020Z,9.73312
2022-09-03T00:13:52.720Z,10.565
2022-09-03T00:18:54.338Z,10.43843
2022-09-03T00:23:55.976Z,12.1684
2022-09-03T00:28:58.820Z,11.78434
2022-09-03T00:34:01.701Z,12.15381
2022-09-03T00:39:03.393Z,13.2875
2022-09-03T00:44:05.128Z,13.94781
2022-09-03T00:49:07.082Z,13.40936
2022-09-03T00:54:08.864Z,14.54645
2022-09-03T00:59:10.616Z,14.52312
2022-09-03T01:04:12.355Z,15.05228
2022-09-03T01:09:14.040Z,16.04602
2022-09-03T01:14:15.824Z,16.50809
2022-09-03T01:19:17.421Z,16.93061
2022-09-03T01:24:19.134Z,16.80006
2022-09-03T01:29:20.866Z,17.45298
2022-09-03T01:34:22.436Z,18.68375
2022-09-03T01:39:24.069Z,19.02953
2022-09-03T01:44:25.733Z,19.84038
2022-09-03T01:49:27.384Z,21.36349
2022-09-03T01:54:28.950Z,20.62443
2022-09-03T01:59:30.546Z,22.83572
2022-09-03T02:04:32.144Z,20.85776
2022-09-03T02:09:33.737Z,21.28815
2022-09-03T02:14:35.342Z,23.05942
2022-09-03T02:19:36.969Z,21.88754
2022-09-03T02:24:38.700Z,23.02738
2022-09-03T02:29:40.291Z,23.61045
2022-09-03T02:34:41.966Z,23.3994
2022-09-03T02:39:43.642Z,22.9338
2022-09-03T02:44:45.303Z,23.25184
2022-09-03T02:49:46.920Z,22.52913
2022-09-03T02:54:48.555Z,22.76778
2022-09-03T02:59:50.147Z,22.91631
2022-09-03T03:04:51.926Z,22.79228
2022-09-03T03:09:53.503Z,25.91096
2022-09-03T03:14:55.096Z,24.15163
2022-09-03T03:19:56.712Z,25.82377
2022-09-03T03:24:58.332Z,25.50953
2022-09-03T03:29:59.912Z,26.57208
2022-09-03T03:35:01.565Z,27.4906
2022-09-03T03:40:03.233Z,25.12357
2022-09-03T03:45:04.909Z,25.87189
2022-09-03T03:50:06.525Z,25.402
2022-09-03T03:55:08.175Z,25.26755
2022-09-03T04:00:09.787Z,30.57816
2022-09-03T04:05:11.554Z,33.21429
2022-09-03T04:10:13.264Z,28.23359
2022-09-03T04:15:14.896Z,27.89208
2022-09-03T04:20:16.686Z,29.22343
2022-09-03T04:25:18.349Z,32.56056
2022-09-03T04:30:19.945Z,36.6129
2022-09-03T04:35:22.684Z,33.21914
2022-09-03T04:40:24.388Z,33.97379
2022-09-03T04:45:25.990Z,32.05394
2022-09-03T04:50:27.632Z,42.27447
2022-09-03T04:55:29.240Z,34.4512
2022-09-03T05:00:30.901Z,40.56443
2022-09-03T05:05:32.547Z,39.34017
2022-09-03T05:10:34.168Z,43.69487
2022-09-03T05:15:35.750Z,35.01207
2022-09-03T05:20:37.445Z,38.18347
2022-09-03T05:25:39.067Z,41.17966
2022-09-03T05:30:40.658Z,35.78401
2022-09-03T05:35:42.429Z,37.42466
2022-09-03T05:40:44.050Z,40.33813
2022-09-03T05:45:45.691Z,37.58334
2022-09-03T05:50:47.313Z,36.42915
2022-09-03T05:55:48.926Z,34.36111
2022-09-03T06:00:50.504Z,35.60707
2022-09-03T06:05:52.120Z,44.52351
2022-09-03T06:10:53.735Z,34.67442
2022-09-03T06:15:55.412Z,36.68425
2022-09-03T06:20:57.039Z,34.43472
2022-09-03T06:26:01.971Z,35.64042
2022-09-03T06:31:07.030Z,33.92523
2022-09-03T06:36:09.127Z,35.36642
2022-09-03T06:41:10.985Z,33.68669
2022-09-03T06:46:12.661Z,33.09491
2022-09-03T06:51:14.494Z,45.97312
2022-09-03T06:56:16.188Z,36.67635
2022-09-03T07:01:17.957Z,40.95807
2022-09-03T07:06:19.913Z,37.95618
2022-09-03T07:11:21.575Z,36.79003
2022-09-03T07:16:23.182Z,42.96653
2022-09-03T07:21:24.878Z,37.75593
2022-09-03T07:26:26.486Z,36.64699
2022-09-03T07:31:28.257Z,37.1043
2022-09-03T07:36:35.256Z,36.21517
2022-09-03T07:41:37.402Z,35.33239
2022-09-03T07:46:39.061Z,40.46071
2022-09-03T07:51:40.717Z,41.66915
2022-09-03T07:56:42.322Z,39.47202
2022-09-03T08:01:43.912Z,39.17147
2022-09-03T08:06:45.488Z,42.82081
2022-09-03T08:11:47.066Z,37.46824
2022-09-03T08:16:48.654Z,38.79155
2022-09-03T08:21:50.239Z,39.77999
2022-09-03T08:26:52.544Z,43.13819
2022-09-03T08:31:54.652Z,40.18378
2022-09-03T08:36:56.300Z,47.8069
2022-09-03T08:41:58.374Z,41.26241
2022-09-03T08:46:59.985Z,40.78364
2022-09-03T08:52:01.558Z,44.37585
2022-09-03T08:57:03.172Z,39.13855
2022-09-03T09:02:04.935Z,44.04599
2022-09-03T09:07:06.544Z,43.07953
2022-09-03T09:12:08.123Z,42.6702
2022-09-03T09:17:09.736Z,40.56488
2022-09-03T09:22:11.503Z,43.40448
2022-09-03T09:27:16.012Z,46.48293
2022-09-03T09:32:17.807Z,45.06242
2022-09-03T09:37:19.985Z,40.54695
2022-09-03T09:42:21.586Z,40.36841
2022-09-03T09:47:23.166Z,40.98514
2022-09-03T09:52:24.780Z,43.41751
2022-09-03T09:57:26.424Z,42.67478
2022-09-03T10:02:28.036Z,39.70004
2022-09-03T10:07:29.674Z,41.54877
2022-09-03T10:12:31.255Z,38.26814
2022-09-03T10:17:36.980Z,42.38861
2022-09-03T10:22:39.105Z,41.24414
2022-09-03T10:27:59.824Z,40.13214
2022-09-03T10:33:01.677Z,41.12229
2022-09-03T10:38:03.503Z,47.51628
2022-09-03T10:43:05.126Z,44.34415
2022-09-03T10:48:06.695Z,43.74771
2022-09-03T10:53:08.305Z,42.41057
2022-09-03T10:58:09.914Z,44.28243
2022-09-03T11:03:11.570Z,53.8434
2022-09-03T11:08:13.161Z,45.04042
2022-09-03T11:13:14.802Z,53.39245
2022-09-03T11:18:16.555Z,56.5419
2022-09-03T11:23:18.181Z,45.37926
2022-09-03T11:28:22.186Z,56.08025
2022-09-03T11:33:23.830Z,48.1991
2022-09-03T11:38:25.551Z,44.4466
2022-09-03T11:43:27.224Z,44.33268
2022-09-03T11:48:29.728Z,41.425
2022-09-03T11:53:31.321Z,48.80034
2022-09-03T11:58:33.048Z,42.97978
2022-09-03T12:03:34.620Z,46.14669
2022-09-03T12:08:36.238Z,42.98958
2022-09-03T12:13:37.872Z,42.94518
2022-09-03T12:18:39.537Z,43.68388
2022-09-03T12:23:41.146Z,42.81897
2022-09-03T12:28:43.957Z,45.32658
2022-09-03T12:33:46.355Z,42.5128
2022-09-03T12:39:10.412Z,44.68305
2022-09-03T12:44:13.612Z,48.61591
2022-09-03T12:49:30.949Z,44.85469
2022-09-03T12:54:32.829Z,45.4186
2022-09-03T12:59:34.425Z,50.00082
2022-09-03T13:04:36.058Z,48.79713
2022-09-03T13:09:37.899Z,46.45139
2022-09-03T13:14:39.603Z,49.27657
2022-09-03T13:19:41.196Z,45.86792
2022-09-03T13:24:42.842Z,52.69373
2022-09-03T13:29:44.612Z,48.48988
2022-09-03T13:34:46.184Z,49.60891
2022-09-03T13:39:47.823Z,47.98415
2022-09-03T13:44:49.501Z,47.8559
2022-09-03T13:49:51.131Z,47.06224
2022-09-03T13:54:53.896Z,49.72999
2022-09-03T13:59:55.527Z,45.03263
2022-09-03T14:04:57.220Z,46.74731
2022-09-03T14:09:58.807Z,48.85502
2022-09-03T14:15:00.492Z,49.17841
2022-09-03T14:20:02.156Z,48.36727
2022-09-03T14:25:03.793Z,49.79044
2022-09-03T14:30:05.410Z,49.34444
2022-09-03T14:35:07.075Z,47.2596
2022-09-03T14:40:08.755Z,49.62105
2022-09-03T14:45:15.432Z,53.98869
2022-09-03T14:50:16.993Z,49.99196
2022-09-03T14:55:18.629Z,51.53464
2022-09-03T15:00:20.421Z,48.53066
2022-09-03T15:05:22.150Z,47.98297
2022-09-03T15:10:23.852Z,47.93116
2022-09-03T15:15:25.446Z,46.92355
2022-09-03T15:20:27.403Z,45.07971
2022-09-03T15:25:28.989Z,45.21318
2022-09-03T15:30:30.703Z,47.27903
2022-09-03T15:35:32.284Z,41.99013
2022-09-03T15:40:34.099Z,47.12008
2022-09-03T15:45:35.762Z,46.98732
2022-09-03T15:50:37.425Z,47.48148
2022-09-03T15:55:39.037Z,47.00796
2022-09-03T16:00:40.659Z,43.57136
2022-09-03T16:05:42.292Z,41.8061
2022-09-03T16:10:43.868Z,39.99182
2022-09-03T16:15:45.565Z,41.2774
2022-09-03T16:20:47.168Z,38.00995
2022-09-03T16:25:48.747Z,38.01428
2022-09-03T16:30:50.972Z,34.14722
2022-09-03T16:35:52.535Z,30.25444
2022-09-03T16:40:54.136Z,30.28248
2022-09-03T16:45:55.830Z,30.90425
2022-09-03T16:51:02.404Z,29.94268
2022-09-03T16:56:04.038Z,32.24491
2022-09-03T17:01:06.668Z,34.90055
2022-09-03T17:06:08.599Z,32.5677
2022-09-03T17:11:10.204Z,37.54483
2022-09-03T17:16:12.446Z,36.28916
2022-09-03T17:21:26.817Z,35.17534
2022-09-03T17:26:28.431Z,31.17627
2022-09-03T17:31:30.122Z,29.57183
2022-09-03T17:36:31.944Z,30.41135
2022-09-03T17:41:34.366Z,29.16702
2022-09-03T17:46:36.328Z,29.03885
2022-09-03T17:51:38.010Z,27.8247
2022-09-03T17:56:39.615Z,24.97546
2022-09-03T18:01:41.319Z,27.13459
2022-09-03T18:06:42.972Z,24.39673
2022-09-03T18:11:44.563Z,24.68518
2022-09-03T18:16:46.321Z,24.55336
2022-09-03T18:21:47.886Z,25.8658
2022-09-03T18:26:49.703Z,24.55254
2022-09-03T18:31:51.271Z,28.51111
2022-09-03T18:36:52.987Z,24.26004
2022-09-03T18:41:54.569Z,23.9666
2022-09-03T18:52:27.991Z,25.27677
2022-09-03T18:57:29.600Z,24.55605
2022-09-03T19:02:31.354Z,25.44685
2022-09-03T19:07:33.014Z,25.60399
2022-09-03T19:12:34.595Z,22.79951
2022-09-03T19:17:36.214Z,21.07909
2022-09-03T19:22:37.849Z,23.33311
2022-09-03T19:27:55.308Z,20.69077
2022-09-03T19:33:00.393Z,21.96033
2022-09-03T19:38:02.000Z,21.61454
2022-09-03T19:43:03.553Z,21.46444
2022-09-03T19:48:05.219Z,22.07409
2022-09-03T19:53:06.854Z,21.13179
2022-09-03T19:58:20.611Z,22.86173
2022-09-03T20:03:28.004Z,19.79526
2022-09-03T20:08:29.591Z,19.22191
2022-09-03T20:13:31.185Z,20.06316
2022-09-03T20:18:32.757Z,20.05627
2022-09-03T20:23:34.344Z,20.50768
2022-09-03T20:28:36.078Z,19.65374
2022-09-03T20:33:37.666Z,20.12372
2022-09-03T20:38:43.679Z,19.27344
2022-09-03T20:43:45.268Z,17.62453
2022-09-03T20:48:46.883Z,22.43434
2022-09-03T20:53:48.501Z,20.47971
2022-09-03T20:58:50.119Z,21.54021
2022-09-03T21:03:51.729Z,21.63242
2022-09-03T21:08:53.550Z,20.54774
2022-09-03T21:13:55.190Z,21.16702
2022-09-03T21:18:56.780Z,22.06468
2022-09-03T21:23:58.380Z,22.05967
2022-09-03T21:28:59.956Z,24.37311
2022-09-03T21:34:01.582Z,22.79309
2022-09-03T21:39:03.194Z,22.02125
2022-09-03T21:44:04.802Z,22.30135
2022-09-03T21:49:06.389Z,20.41256
2022-09-03T21:54:08.137Z,18.77388
2022-09-03T21:59:09.743Z,18.53137
2022-09-03T22:04:11.490Z,18.55989
2022-09-03T22:09:13.080Z,19.1145
2022-09-03T22:14:14.730Z,18.1686
2022-09-03T22:19:16.335Z,18.33026
2022-09-03T22:24:17.944Z,18.85394
2022-09-03T22:29:19.560Z,18.07948
2022-09-03T22:34:21.149Z,19.1748
2022-09-03T22:39:22.842Z,18.95352
